createdAt,value
2017-11-24T00:01:13.111Z,1.90
2017-11-24T00:03:40.781Z,7.60
2017-11-24T00:06:08.393Z,3.03
2017-11-24T00:08:36.006Z,1.90
2017-11-24T00:11:03.669Z,1.57
2017-11-24T00:13:31.270Z,1.73
2017-11-24T00:15:58.877Z,3.80
2017-11-24T00:18:26.471Z,8.73
2017-11-24T00:20:54.845Z,4.27
2017-11-24T00:23:22.497Z,6.67
2017-11-24T00:25:50.112Z,2.40
2017-11-24T00:28:17.697Z,4.23
2017-11-24T00:30:45.311Z,3.93
2017-11-24T00:33:13.663Z,4.93
2017-11-24T00:35:42.795Z,3.37
2017-11-24T00:38:10.432Z,3.17
2017-11-24T00:40:38.834Z,4.83
2017-11-24T00:43:06.428Z,3.23
2017-11-24T00:45:34.038Z,1.33
2017-11-24T00:48:02.417Z,1.93
2017-11-24T00:50:30.787Z,7.80
2017-11-24T00:52:59.919Z,4.20
2017-11-24T00:55:27.509Z,2.40
2017-11-24T00:57:55.119Z,3.00
2017-11-24T01:00:23.473Z,1.60
2017-11-24T01:02:51.085Z,2.03
2017-11-24T01:05:18.675Z,2.20
2017-11-24T01:07:46.285Z,2.20
2017-11-24T01:10:14.637Z,1.67
2017-11-24T01:12:42.318Z,8.90
2017-11-24T01:15:10.686Z,3.40
2017-11-24T01:17:38.317Z,7.03
2017-11-24T01:20:05.914Z,4.97
2017-11-24T01:22:34.284Z,3.83
2017-11-24T01:25:01.894Z,1.57
2017-11-24T01:27:29.492Z,6.57
2017-11-24T01:29:57.118Z,3.73
2017-11-24T01:32:24.713Z,2.50
2017-11-24T01:34:52.347Z,4.10
2017-11-24T01:37:19.977Z,6.13
2017-11-24T01:39:48.369Z,2.33
2017-11-24T01:42:16.725Z,11.10
2017-11-24T01:44:45.850Z,3.37
2017-11-24T01:47:13.454Z,4.67
2017-11-24T01:49:41.158Z,2.50
2017-11-24T01:52:09.533Z,4.63
2017-11-24T01:54:37.918Z,5.27
2017-11-24T01:57:06.277Z,5.63
2017-11-24T01:59:33.950Z,3.77
2017-11-24T02:02:02.439Z,4.77
2017-11-24T02:04:31.642Z,5.50
2017-11-24T02:07:00.031Z,10.57
2017-11-24T02:09:28.382Z,6.60
2017-11-24T02:11:56.002Z,3.93
2017-11-24T02:14:23.594Z,3.17
2017-11-24T02:16:51.202Z,5.40
2017-11-24T02:19:19.563Z,7.50
2017-11-24T02:21:47.956Z,3.40
2017-11-24T02:24:16.639Z,4.33
2017-11-24T02:26:45.013Z,3.93
2017-11-24T02:29:13.375Z,9.60
2017-11-24T02:31:40.987Z,3.83
2017-11-24T02:34:08.578Z,4.57
2017-11-24T02:36:36.192Z,8.20
2017-11-24T02:39:04.552Z,4.13
2017-11-24T02:41:32.932Z,18.83
2017-11-24T02:44:01.319Z,8.13
2017-11-24T02:46:29.683Z,4.30
2017-11-24T02:48:57.298Z,5.80
2017-11-24T02:51:24.914Z,5.67
2017-11-24T02:53:52.542Z,4.43
2017-11-24T02:56:20.138Z,8.40
2017-11-24T02:58:49.262Z,6.17
2017-11-24T03:01:17.619Z,6.90
2017-11-24T03:03:46.093Z,4.27
2017-11-24T03:06:13.686Z,10.50
2017-11-24T03:08:41.317Z,4.60
2017-11-24T03:11:08.915Z,6.43
2017-11-24T03:13:36.547Z,9.23
2017-11-24T03:16:04.930Z,7.03
2017-11-24T03:18:33.292Z,7.50
2017-11-24T03:21:00.920Z,11.60
2017-11-24T03:23:28.509Z,7.80
2017-11-24T03:25:56.125Z,14.37
2017-11-24T03:28:23.715Z,4.10
2017-11-24T03:30:51.413Z,8.97
2017-11-24T03:33:20.610Z,9.10
2017-11-24T03:35:49.095Z,11.93
2017-11-24T03:38:16.686Z,15.40
2017-11-24T03:40:44.306Z,11.50
2017-11-24T03:43:11.987Z,7.37
2017-11-24T03:45:40.371Z,8.20
2017-11-24T03:48:08.731Z,8.70
2017-11-24T03:50:36.406Z,8.50
2017-11-24T03:53:04.758Z,9.00
2017-11-24T03:55:32.380Z,6.63
2017-11-24T03:57:59.975Z,21.07
2017-11-24T04:00:27.576Z,2.80
2017-11-24T04:02:56.338Z,7.07
2017-11-24T04:05:23.930Z,3.63
2017-11-24T04:07:52.402Z,2.83
2017-11-24T04:10:20.791Z,11.10
2017-11-24T04:12:49.266Z,3.20
2017-11-24T04:15:17.631Z,12.33
2017-11-24T04:17:45.257Z,6.57
2017-11-24T04:20:12.843Z,3.23
2017-11-24T04:22:40.465Z,8.00
2017-11-24T04:25:08.096Z,10.20
2017-11-24T04:27:36.497Z,10.67
2017-11-24T04:30:04.138Z,6.30
2017-11-24T04:32:32.614Z,2.70
2017-11-24T04:35:00.976Z,8.63
2017-11-24T04:37:28.658Z,4.50
2017-11-24T04:39:57.039Z,3.00
2017-11-24T04:42:26.134Z,6.50
2017-11-24T04:44:54.613Z,7.30
2017-11-24T04:47:22.211Z,2.80
2017-11-24T04:49:49.826Z,4.63
2017-11-24T04:52:17.419Z,9.30
2017-11-24T04:54:45.810Z,11.73
2017-11-24T04:57:13.402Z,5.40
2017-11-24T04:59:41.107Z,6.10
2017-11-24T05:02:10.202Z,3.00
2017-11-24T05:04:38.682Z,2.83
2017-11-24T05:07:06.351Z,11.27
2017-11-24T05:09:34.743Z,8.53
2017-11-24T05:12:03.215Z,8.87
2017-11-24T05:14:31.695Z,5.07
2017-11-24T05:16:59.323Z,5.80
2017-11-24T05:19:26.937Z,15.37
2017-11-24T05:21:54.531Z,4.70
2017-11-24T05:24:22.154Z,17.00
2017-11-24T05:26:50.623Z,6.60
2017-11-24T05:29:19.042Z,14.50
2017-11-24T05:31:46.667Z,7.43
2017-11-24T05:34:14.263Z,3.50
2017-11-24T05:36:41.886Z,2.70
2017-11-24T05:39:10.250Z,4.90
2017-11-24T05:41:37.870Z,4.33
2017-11-24T05:44:05.491Z,10.00
2017-11-24T05:46:36.103Z,16.37
2017-11-24T05:49:03.792Z,6.57
2017-11-24T05:51:32.190Z,6.57
2017-11-24T05:53:59.790Z,6.80
2017-11-24T05:56:27.411Z,3.40
2017-11-24T05:58:55.055Z,9.37
2017-11-24T06:01:22.673Z,8.53
2017-11-24T06:03:50.266Z,3.83
2017-11-24T06:06:17.868Z,11.73
2017-11-24T06:08:45.486Z,8.60
2017-11-24T06:11:13.087Z,8.10
2017-11-24T06:13:41.461Z,10.70
2017-11-24T06:16:09.822Z,5.87
2017-11-24T06:18:37.441Z,12.80
2017-11-24T06:21:05.059Z,8.40
2017-11-24T06:23:33.588Z,10.43
2017-11-24T06:26:01.302Z,5.57
2017-11-24T06:28:29.692Z,4.33
2017-11-24T06:30:58.151Z,3.17
2017-11-24T06:33:27.271Z,9.70
2017-11-24T06:35:55.646Z,12.17
2017-11-24T06:38:24.027Z,15.17
2017-11-24T06:40:52.388Z,14.33
2017-11-24T06:43:20.774Z,11.67
2017-11-24T06:45:49.259Z,14.23
2017-11-24T06:48:17.633Z,14.20
2017-11-24T06:50:45.298Z,10.27
2017-11-24T06:53:12.885Z,28.20
2017-11-24T06:55:40.523Z,20.13
2017-11-24T06:58:08.960Z,18.73
2017-11-24T07:00:36.662Z,21.13
2017-11-24T07:03:04.327Z,17.93
2017-11-24T07:05:31.943Z,19.43
2017-11-24T07:07:59.558Z,36.83
2017-11-24T07:10:27.951Z,15.23
2017-11-24T07:12:56.306Z,24.33
2017-11-24T07:15:25.510Z,18.13
2017-11-24T07:17:53.106Z,21.77
2017-11-24T07:20:20.740Z,8.23
2017-11-24T07:22:49.102Z,33.77
2017-11-24T07:25:17.502Z,12.30
2017-11-24T07:27:45.858Z,9.33
2017-11-24T07:30:13.538Z,7.10
2017-11-24T07:32:41.199Z,2.63
2017-11-24T07:35:08.794Z,7.40
2017-11-24T07:37:36.412Z,10.67
2017-11-24T07:40:05.514Z,8.70
2017-11-24T07:42:33.130Z,7.10
2017-11-24T07:45:00.747Z,12.20
2017-11-24T07:47:29.139Z,10.57
2017-11-24T07:49:58.327Z,10.47
2017-11-24T07:52:26.806Z,14.03
2017-11-24T07:54:54.467Z,9.80
2017-11-24T07:57:22.191Z,14.03
2017-11-24T07:59:49.782Z,8.90
2017-11-24T08:02:18.162Z,7.83
2017-11-24T08:04:46.537Z,23.87
2017-11-24T08:07:14.218Z,17.60
2017-11-24T08:09:42.666Z,22.60
2017-11-24T08:12:10.358Z,19.73
2017-11-24T08:14:39.474Z,7.90
2017-11-24T08:17:07.830Z,14.17
2017-11-24T08:19:35.458Z,25.57
2017-11-24T08:22:03.046Z,17.37
2017-11-24T08:24:30.662Z,20.27
2017-11-24T08:26:58.282Z,13.53
2017-11-24T08:29:25.890Z,13.43
2017-11-24T08:31:53.510Z,14.10
2017-11-24T08:34:21.123Z,17.63
2017-11-24T08:36:48.742Z,15.37
2017-11-24T08:39:17.142Z,19.13
2017-11-24T08:41:44.737Z,9.70
2017-11-24T08:44:12.325Z,18.13
2017-11-24T08:46:45.602Z,7.50
2017-11-24T08:49:18.996Z,10.83
2017-11-24T08:51:46.694Z,11.00
2017-11-24T08:54:14.283Z,12.43
2017-11-24T08:56:41.893Z,9.70
2017-11-24T08:59:09.582Z,12.43
2017-11-24T09:01:37.965Z,10.97
2017-11-24T09:04:06.398Z,12.67
2017-11-24T09:06:34.014Z,12.50
2017-11-24T09:09:02.375Z,14.90
2017-11-24T09:11:31.493Z,10.77
2017-11-24T09:13:59.847Z,8.90
2017-11-24T09:16:28.966Z,5.10
2017-11-24T09:18:57.325Z,12.07
2017-11-24T09:21:24.967Z,15.07
2017-11-24T09:23:52.562Z,18.00
2017-11-24T09:26:20.224Z,12.10
2017-11-24T09:28:48.615Z,6.63
2017-11-24T09:31:17.087Z,9.50
2017-11-24T09:33:44.698Z,12.73
2017-11-24T09:36:12.291Z,19.43
2017-11-24T09:38:39.907Z,13.00
2017-11-24T09:41:07.505Z,11.33
2017-11-24T09:43:35.120Z,8.80
2017-11-24T09:46:02.718Z,14.10
2017-11-24T09:48:30.418Z,13.60
2017-11-24T09:50:58.010Z,9.37
2017-11-24T09:53:25.650Z,8.93
2017-11-24T09:55:54.001Z,11.80
2017-11-24T09:58:21.640Z,19.83
2017-11-24T10:00:49.248Z,8.00
2017-11-24T10:03:17.610Z,6.13
2017-11-24T10:05:46.107Z,20.57
2017-11-24T10:08:13.766Z,7.87
2017-11-24T10:10:42.138Z,8.07
2017-11-24T10:13:09.733Z,13.97
2017-11-24T10:15:38.123Z,21.03
2017-11-24T10:18:05.813Z,11.43
2017-11-24T10:20:39.234Z,11.23
2017-11-24T10:23:06.915Z,7.43
2017-11-24T10:25:34.532Z,14.40
2017-11-24T10:28:02.143Z,10.30
2017-11-24T10:30:30.521Z,16.50
2017-11-24T10:32:58.526Z,15.20
2017-11-24T10:35:26.154Z,11.00
2017-11-24T10:37:53.815Z,7.30
2017-11-24T10:40:21.411Z,6.23
2017-11-24T10:42:49.035Z,13.60
2017-11-24T10:45:17.399Z,4.67
2017-11-24T10:47:45.084Z,5.50
2017-11-24T10:50:13.447Z,14.43
2017-11-24T10:52:41.067Z,13.13
2017-11-24T10:55:08.663Z,10.50
2017-11-24T10:57:36.408Z,5.17
2017-11-24T11:00:04.015Z,6.00
2017-11-24T11:02:32.390Z,8.10
2017-11-24T11:04:59.982Z,10.07
2017-11-24T11:07:27.604Z,24.47
2017-11-24T11:09:55.958Z,12.30
2017-11-24T11:12:23.579Z,10.43
2017-11-24T11:14:52.370Z,5.90
2017-11-24T11:17:20.722Z,6.97
2017-11-24T11:19:48.338Z,14.90
2017-11-24T11:22:15.937Z,9.40
2017-11-24T11:24:44.332Z,11.80
2017-11-24T11:27:12.705Z,7.70
2017-11-24T11:29:41.835Z,13.30
2017-11-24T11:32:09.428Z,13.30
2017-11-24T11:34:37.134Z,10.57
2017-11-24T11:37:05.496Z,15.10
2017-11-24T11:39:33.114Z,4.40
2017-11-24T11:42:00.711Z,10.93
2017-11-24T11:44:28.397Z,14.27
2017-11-24T11:46:58.542Z,15.43
2017-11-24T11:49:27.002Z,18.57
2017-11-24T11:51:54.662Z,22.17
2017-11-24T11:54:22.280Z,9.90
2017-11-24T11:56:49.894Z,9.90
2017-11-24T11:59:18.375Z,11.10
2017-11-24T12:01:46.737Z,9.37
2017-11-24T12:04:15.110Z,11.10
2017-11-24T12:06:43.493Z,16.63
2017-11-24T12:09:11.178Z,14.83
2017-11-24T12:11:39.568Z,12.07
2017-11-24T12:14:08.043Z,12.33
2017-11-24T12:16:36.443Z,12.40
2017-11-24T12:19:04.043Z,24.43
2017-11-24T12:21:31.661Z,12.80
2017-11-24T12:24:00.124Z,14.00
2017-11-24T12:26:28.510Z,7.67
2017-11-24T12:28:56.990Z,17.13
2017-11-24T12:31:25.370Z,8.80
2017-11-24T12:33:53.743Z,10.43
2017-11-24T12:36:21.408Z,10.53
2017-11-24T12:38:49.002Z,18.23
2017-11-24T12:41:16.607Z,13.43
2017-11-24T12:43:44.232Z,10.00
2017-11-24T12:46:11.826Z,13.23
2017-11-24T12:48:39.446Z,11.57
2017-11-24T12:51:07.078Z,24.23
2017-11-24T12:53:34.690Z,8.60
2017-11-24T12:56:02.295Z,8.33
2017-11-24T12:58:29.920Z,12.73
2017-11-24T13:00:57.583Z,8.07
2017-11-24T13:03:25.286Z,9.23
2017-11-24T13:05:52.888Z,10.10
2017-11-24T13:08:20.618Z,10.70
2017-11-24T13:10:49.099Z,10.20
2017-11-24T13:13:16.746Z,9.23
2017-11-24T13:15:45.113Z,10.87
2017-11-24T13:18:12.710Z,8.83
2017-11-24T13:20:41.178Z,17.87
2017-11-24T13:23:08.849Z,13.70
2017-11-24T13:25:36.522Z,10.50
2017-11-24T13:28:04.899Z,12.80
2017-11-24T13:30:33.282Z,14.90
2017-11-24T13:33:01.649Z,11.90
2017-11-24T13:35:30.135Z,14.53
2017-11-24T13:37:58.614Z,8.90
2017-11-24T13:40:26.233Z,8.87
2017-11-24T13:42:53.821Z,9.97
2017-11-24T13:45:21.443Z,8.23
2017-11-24T13:47:49.071Z,23.10
2017-11-24T13:50:17.546Z,10.10
2017-11-24T13:52:45.207Z,8.00
2017-11-24T13:55:12.802Z,12.53
2017-11-24T13:57:40.425Z,12.03
2017-11-24T14:00:08.090Z,6.40
2017-11-24T14:02:35.711Z,15.60
2017-11-24T14:05:03.427Z,6.33
2017-11-24T14:07:31.906Z,12.83
2017-11-24T14:10:00.271Z,11.20
2017-11-24T14:12:28.654Z,8.67
2017-11-24T14:14:56.254Z,15.20
2017-11-24T14:17:23.873Z,17.87
2017-11-24T14:19:51.505Z,8.13
2017-11-24T14:22:19.122Z,6.63
2017-11-24T14:24:47.482Z,14.27
2017-11-24T14:27:15.131Z,12.30
2017-11-24T14:29:44.242Z,15.83
2017-11-24T14:32:11.921Z,10.43
2017-11-24T14:34:40.302Z,8.50
2017-11-24T14:37:08.770Z,12.83
2017-11-24T14:39:36.435Z,6.07
2017-11-24T14:42:04.098Z,11.90
2017-11-24T14:44:32.489Z,11.77
2017-11-24T14:47:00.854Z,11.70
2017-11-24T14:49:28.527Z,5.07
2017-11-24T14:51:56.890Z,9.07
2017-11-24T14:54:25.292Z,15.23
2017-11-24T14:56:53.721Z,10.53
2017-11-24T14:59:21.361Z,5.77
2017-11-24T15:01:48.962Z,8.03
2017-11-24T15:04:16.709Z,7.13
2017-11-24T15:06:44.332Z,8.23
2017-11-24T15:09:12.799Z,9.90
2017-11-24T15:11:41.273Z,8.60
2017-11-24T15:14:08.869Z,7.80
2017-11-24T15:16:36.484Z,4.87
2017-11-24T15:19:04.166Z,17.27
2017-11-24T15:21:31.830Z,7.07
2017-11-24T15:23:59.502Z,11.13
2017-11-24T15:26:27.915Z,9.00
2017-11-24T15:28:55.513Z,16.00
2017-11-24T15:31:23.115Z,11.90
2017-11-24T15:33:51.516Z,8.53
2017-11-24T15:36:19.144Z,7.40
2017-11-24T15:38:47.540Z,15.00
2017-11-24T15:41:15.898Z,9.23
2017-11-24T15:43:43.564Z,18.80
2017-11-24T15:46:11.922Z,6.33
2017-11-24T15:48:39.539Z,9.93
2017-11-24T15:51:07.135Z,4.10
2017-11-24T15:53:34.778Z,9.40
2017-11-24T15:56:02.370Z,10.03
2017-11-24T15:58:30.055Z,5.30
2017-11-24T16:00:58.438Z,9.30
2017-11-24T16:03:26.918Z,24.13
2017-11-24T16:05:55.306Z,5.67
2017-11-24T16:08:23.779Z,10.73
2017-11-24T16:10:52.162Z,13.27
2017-11-24T16:13:20.538Z,8.70
2017-11-24T16:15:49.018Z,14.10
2017-11-24T16:18:16.620Z,10.57
2017-11-24T16:20:44.338Z,10.20
2017-11-24T16:23:12.727Z,8.10
2017-11-24T16:25:41.102Z,8.80
2017-11-24T16:28:08.762Z,9.63
2017-11-24T16:30:36.347Z,8.83
2017-11-24T16:33:04.807Z,17.03
2017-11-24T16:35:32.403Z,18.87
2017-11-24T16:38:00.026Z,7.23
2017-11-24T16:40:27.704Z,11.83
2017-11-24T16:42:56.183Z,4.97
2017-11-24T16:45:24.550Z,7.70
2017-11-24T16:47:53.042Z,7.07
2017-11-24T16:50:21.411Z,11.10
2017-11-24T16:52:49.803Z,3.97
2017-11-24T16:55:18.281Z,102.40
2017-11-24T16:57:45.942Z,12.43
2017-11-24T17:00:14.330Z,21.73
2017-11-24T17:02:42.711Z,5.07
2017-11-24T17:05:11.181Z,10.30
2017-11-24T17:07:40.429Z,6.13
2017-11-24T17:10:08.023Z,8.87
2017-11-24T17:12:35.619Z,6.40
2017-11-24T17:15:04.002Z,11.17
2017-11-24T17:17:32.357Z,12.13
2017-11-24T17:20:01.478Z,14.67
2017-11-24T17:22:29.843Z,12.03
2017-11-24T17:24:58.230Z,11.37
2017-11-24T17:27:26.707Z,13.77
2017-11-24T17:29:54.374Z,98.53
2017-11-24T17:32:22.739Z,81.27
2017-11-24T17:34:51.955Z,198.57
2017-11-24T17:37:20.336Z,20.17
2017-11-24T17:39:48.702Z,21.17
2017-11-24T17:42:17.106Z,13.50
2017-11-24T17:44:45.462Z,10.30
2017-11-24T17:47:14.666Z,12.77
2017-11-24T17:49:42.323Z,8.53
2017-11-24T17:52:09.947Z,16.63
2017-11-24T17:54:37.535Z,9.07
2017-11-24T17:57:05.217Z,13.33
2017-11-24T17:59:32.887Z,17.23
2017-11-24T18:02:01.329Z,14.87
2017-11-24T18:04:28.923Z,14.60
2017-11-24T18:06:56.588Z,14.80
2017-11-24T18:09:24.955Z,13.13
2017-11-24T18:11:54.059Z,18.43
2017-11-24T18:14:22.443Z,14.03
2017-11-24T18:16:50.125Z,13.63
2017-11-24T18:19:17.771Z,16.03
2017-11-24T18:21:46.131Z,9.10
2017-11-24T18:24:13.741Z,11.60
2017-11-24T18:26:41.327Z,9.17
2017-11-24T18:29:09.035Z,21.83
2017-11-24T18:31:36.622Z,40.73
2017-11-24T18:34:04.255Z,34.50
2017-11-24T18:36:31.848Z,72.07
2017-11-24T18:38:59.486Z,34.67
2017-11-24T18:41:27.850Z,25.43
2017-11-24T18:43:56.222Z,34.73
2017-11-24T18:46:23.843Z,33.83
2017-11-24T18:48:51.443Z,58.90
2017-11-24T18:51:19.062Z,52.33
2017-11-24T18:53:46.691Z,50.43
2017-11-24T18:56:15.087Z,40.87
2017-11-24T18:58:43.442Z,14.63
2017-11-24T19:01:11.826Z,18.10
2017-11-24T19:03:40.939Z,17.93
2017-11-24T19:06:09.327Z,26.37
2017-11-24T19:08:36.932Z,15.37
2017-11-24T19:11:04.570Z,20.33
2017-11-24T19:13:32.194Z,14.97
2017-11-24T19:16:00.566Z,22.87
2017-11-24T19:18:29.056Z,21.97
2017-11-24T19:20:57.585Z,24.33
2017-11-24T19:23:25.946Z,20.50
2017-11-24T19:25:53.582Z,14.50
2017-11-24T19:28:22.059Z,15.10
2017-11-24T19:30:50.427Z,20.43
2017-11-24T19:33:19.642Z,16.10
2017-11-24T19:35:48.133Z,21.47
2017-11-24T19:38:16.522Z,31.60
2017-11-24T19:40:44.890Z,22.83
2017-11-24T19:43:13.303Z,20.30
2017-11-24T19:45:40.902Z,21.97
2017-11-24T19:48:08.590Z,24.20
2017-11-24T19:50:36.977Z,22.00
2017-11-24T19:53:05.347Z,23.23
2017-11-24T19:55:33.749Z,23.70
2017-11-24T19:58:01.355Z,33.20
2017-11-24T20:00:28.982Z,21.17
2017-11-24T20:02:56.614Z,27.20
2017-11-24T20:05:25.003Z,35.23
2017-11-24T20:07:53.370Z,27.17
2017-11-24T20:10:21.012Z,24.90
2017-11-24T20:12:48.615Z,26.90
2017-11-24T20:15:17.078Z,33.83
2017-11-24T20:17:44.741Z,27.53
2017-11-24T20:20:13.107Z,25.87
2017-11-24T20:22:40.735Z,25.60
2017-11-24T20:25:08.333Z,36.27
2017-11-24T20:27:35.957Z,25.30
2017-11-24T20:30:03.675Z,27.20
2017-11-24T20:32:32.086Z,26.00
2017-11-24T20:34:59.696Z,30.10
2017-11-24T20:37:27.383Z,27.27
2017-11-24T20:39:55.783Z,23.60
2017-11-24T20:42:23.421Z,36.13
2017-11-24T20:44:51.901Z,29.87
2017-11-24T20:47:20.270Z,29.83
2017-11-24T20:49:47.955Z,29.17
2017-11-24T20:52:16.319Z,32.17
2017-11-24T20:54:43.987Z,36.53
2017-11-24T20:57:12.357Z,28.00
2017-11-24T20:59:40.007Z,42.40
2017-11-24T21:02:07.619Z,40.30
2017-11-24T21:04:35.223Z,30.23
2017-11-24T21:07:02.850Z,23.03
2017-11-24T21:09:30.450Z,30.80
2017-11-24T21:11:58.071Z,42.50
2017-11-24T21:14:25.673Z,34.77
2017-11-24T21:16:53.299Z,28.50
2017-11-24T21:19:20.940Z,33.97
2017-11-24T21:21:49.354Z,29.97
2017-11-24T21:24:16.962Z,46.90
2017-11-24T21:26:44.586Z,36.40
2017-11-24T21:29:12.225Z,39.03
2017-11-24T21:31:39.847Z,40.20
2017-11-24T21:34:07.518Z,38.60
2017-11-24T21:36:35.907Z,41.30
2017-11-24T21:39:04.269Z,37.83
2017-11-24T21:41:31.902Z,43.20
2017-11-24T21:43:59.502Z,52.37
2017-11-24T21:46:27.918Z,38.67
2017-11-24T21:48:55.562Z,35.20
2017-11-24T21:51:23.925Z,49.03
2017-11-24T21:53:52.407Z,43.13
2017-11-24T21:56:20.896Z,37.77
2017-11-24T21:58:49.282Z,52.33
2017-11-24T22:01:17.755Z,44.50
2017-11-24T22:03:46.239Z,41.03
2017-11-24T22:06:14.602Z,37.07
2017-11-24T22:08:42.228Z,39.37
2017-11-24T22:11:09.838Z,35.77
2017-11-24T22:13:38.967Z,33.27
2017-11-24T22:16:06.562Z,36.23
2017-11-24T22:18:34.218Z,30.27
2017-11-24T22:21:01.825Z,36.57
2017-11-24T22:23:30.316Z,31.53
2017-11-24T22:25:58.706Z,39.23
2017-11-24T22:28:26.306Z,31.40
2017-11-24T22:30:53.932Z,32.97
2017-11-24T22:33:21.530Z,45.43
2017-11-24T22:35:49.150Z,41.73
2017-11-24T22:38:17.526Z,44.13
2017-11-24T22:40:45.923Z,34.53
2017-11-24T22:43:13.528Z,36.97
2017-11-24T22:45:41.222Z,47.20
2017-11-24T22:48:09.702Z,35.63
2017-11-24T22:50:38.095Z,29.20
2017-11-24T22:53:07.104Z,34.57
2017-11-24T22:55:34.697Z,32.17
2017-11-24T22:58:02.322Z,33.10
2017-11-24T23:00:29.962Z,32.17
2017-11-24T23:02:58.355Z,32.77
2017-11-24T23:05:26.724Z,37.00
2017-11-24T23:07:55.118Z,35.10
2017-11-24T23:10:23.583Z,46.27
2017-11-24T23:12:51.975Z,27.97
2017-11-24T23:15:20.339Z,32.30
2017-11-24T23:17:48.743Z,31.50
2017-11-24T23:20:17.107Z,40.77
2017-11-24T23:22:45.494Z,43.17
2017-11-24T23:25:13.968Z,39.70
2017-11-24T23:27:42.380Z,41.50
2017-11-24T23:30:09.990Z,37.80
2017-11-24T23:32:37.674Z,38.83
2017-11-24T23:35:06.142Z,46.87
2017-11-24T23:37:33.742Z,44.63
2017-11-24T23:40:01.366Z,37.10
2017-11-24T23:42:29.042Z,28.57
2017-11-24T23:44:57.430Z,35.40
2017-11-24T23:47:25.795Z,38.10
2017-11-24T23:49:55.003Z,40.17
2017-11-24T23:52:23.382Z,31.57
2017-11-24T23:54:51.765Z,45.13
2017-11-24T23:57:20.132Z,53.70
2017-11-24T23:59:47.780Z,41.03
